Time;durP1;ratioP1;P1;durP2;ratioP2;P2;SDS_P1;SDS_P2;PMS_P1;PMS_P2;Temp;Humidity;BMP_temperature;BMP_pressure;BME280_temperature;BME280_humidity;BME280_pressure;Samples;Min_cycle;Max_cycle;Signal;HPM_P1;HPM_P2
2022/11/15 05:02:21;;;;;;;5.72;5.22;;;5.90;99.90;;;;;;6084041;23;20271;-69
2022/11/15 05:04:46;;;;;;;10.02;6.40;;;5.90;99.90;;;;;;6091339;23;20182;-70
2022/11/15 05:07:13;;;;;;;8.97;4.90;;;5.90;99.90;;;;;;6090590;23;20627;-69
2022/11/15 05:09:40;;;;;;;10.05;6.63;;;5.90;99.90;;;;;;6091997;23;20181;-69
2022/11/15 05:12:06;;;;;;;6.78;5.72;;;5.90;99.90;;;;;;6091769;23;20216;-69
2022/11/15 05:14:33;;;;;;;15.68;7.88;;;5.90;99.90;;;;;;6091872;23;20512;-69
2022/11/15 05:17:01;;;;;;;9.95;6.80;;;5.90;99.90;;;;;;6092049;23;20679;-69
2022/11/15 05:19:29;;;;;;;15.40;5.35;;;5.90;99.90;;;;;;6093730;23;20192;-69
2022/11/15 05:21:55;;;;;;;6.47;5.82;;;5.90;99.90;;;;;;6093026;23;20206;-69
2022/11/15 05:24:22;;;;;;;9.18;5.10;;;5.90;99.90;;;;;;6092997;23;20198;-69
2022/11/15 05:26:49;;;;;;;6.72;5.60;;;5.90;99.90;;;;;;6092707;23;20207;-69
2022/11/15 05:29:15;;;;;;;7.50;5.45;;;5.90;99.90;;;;;;6093679;23;20193;-69
2022/11/15 05:31:43;;;;;;;8.90;5.30;;;5.90;99.90;;;;;;6093867;23;20214;-69
2022/11/15 05:34:10;;;;;;;5.22;4.07;;;6.00;99.90;;;;;;6092989;23;20240;-69
2022/11/15 05:36:39;;;;;;;7.03;5.82;;;6.00;99.90;;;;;;6093144;23;20188;-68
2022/11/15 05:39:08;;;;;;;14.13;7.40;;;6.10;99.90;;;;;;6093277;23;20185;-69
2022/11/15 05:41:38;;;;;;;5.18;4.35;;;6.10;99.90;;;;;;6093644;23;20202;-69
2022/11/15 05:44:08;;;;;;;7.82;7.03;;;6.10;99.90;;;;;;6092783;23;20189;-69
2022/11/15 05:46:35;;;;;;;17.00;8.20;;;6.20;99.90;;;;;;6093867;23;20186;-69
2022/11/15 05:49:03;;;;;;;14.10;7.97;;;6.20;99.90;;;;;;6093350;23;20661;-69
2022/11/15 05:51:30;;;;;;;9.32;5.40;;;6.20;99.90;;;;;;6093784;23;20214;-69
2022/11/15 05:54:00;;;;;;;7.07;6.00;;;6.20;99.90;;;;;;6094587;23;20186;-69
2022/11/15 05:56:27;;;;;;;9.05;7.75;;;6.20;99.90;;;;;;6100660;23;20189;-69
2022/11/15 05:58:57;;;;;;;11.18;8.48;;;6.30;99.90;;;;;;6095477;23;20181;-69
2022/11/15 06:01:26;;;;;;;46.58;19.92;;;6.30;99.90;;;;;;6093800;23;20210;-69
2022/11/15 06:03:52;;;;;;;26.45;15.23;;;6.30;99.90;;;;;;6092578;23;20201;-69
2022/11/15 06:06:19;;;;;;;11.88;10.10;;;6.30;99.90;;;;;;6094000;23;20189;-69
2022/11/15 06:08:47;;;;;;;9.52;7.03;;;6.40;99.90;;;;;;6092787;23;20686;-69
2022/11/15 06:11:15;;;;;;;8.90;6.18;;;6.40;99.90;;;;;;6093624;23;20980;-69
2022/11/15 06:13:42;;;;;;;7.95;6.32;;;6.40;99.90;;;;;;6091485;23;20189;-69
2022/11/15 06:16:09;;;;;;;9.50;5.90;;;6.40;99.90;;;;;;6093412;23;20193;-69
2022/11/15 06:18:36;;;;;;;17.95;8.15;;;6.40;99.90;;;;;;6094206;23;20190;-69
2022/11/15 06:21:03;;;;;;;8.20;6.88;;;6.50;99.90;;;;;;6092835;23;20488;-69
2022/11/15 06:23:33;;;;;;;9.20;5.97;;;6.50;99.90;;;;;;6093180;23;20183;-69
2022/11/15 06:26:01;;;;;;;7.40;6.35;;;6.50;99.90;;;;;;6092733;23;20175;-68
2022/11/15 06:28:30;;;;;;;12.77;7.18;;;6.50;99.90;;;;;;6092325;23;20186;-68
2022/11/15 06:30:57;;;;;;;9.63;6.50;;;6.50;99.90;;;;;;6092351;23;20534;-68
2022/11/15 06:33:24;;;;;;;8.70;6.32;;;6.60;99.90;;;;;;6091494;23;20541;-68
2022/11/15 06:35:50;;;;;;;11.85;4.85;;;6.60;99.90;;;;;;6092120;23;20656;-68
2022/11/15 06:38:17;;;;;;;8.23;6.88;;;6.60;99.90;;;;;;6092362;23;20213;-68
2022/11/15 06:40:44;;;;;;;6.30;5.57;;;6.60;99.90;;;;;;6093062;23;20209;-68
2022/11/15 06:43:10;;;;;;;7.95;5.75;;;6.70;99.90;;;;;;6091410;23;20181;-68
2022/11/15 06:45:38;;;;;;;7.55;5.30;;;6.70;99.90;;;;;;6093001;23;20182;-68
2022/11/15 06:48:06;;;;;;;10.23;6.32;;;6.70;99.90;;;;;;6093359;23;20193;-68
2022/11/15 06:50:33;;;;;;;5.70;5.10;;;6.80;99.90;;;;;;6092720;23;20336;-68
2022/11/15 06:53:02;;;;;;;14.63;5.13;;;6.80;99.90;;;;;;6091948;23;20470;-68
2022/11/15 06:55:29;;;;;;;10.85;8.75;;;6.80;99.90;;;;;;6092913;23;20209;-68
2022/11/15 06:57:56;;;;;;;9.73;5.35;;;6.80;99.90;;;;;;6092676;23;20187;-68
2022/11/15 07:00:23;;;;;;;10.00;8.50;;;6.90;99.90;;;;;;6090750;23;20471;-69
2022/11/15 07:02:51;;;;;;;7.13;5.75;;;6.90;99.90;;;;;;6092166;23;20640;-69
2022/11/15 07:05:17;;;;;;;8.45;7.07;;;6.90;99.90;;;;;;6092313;23;20507;-69
2022/11/15 07:07:51;;;;;;;13.63;5.70;;;7.00;99.90;;;;;;6092759;23;20205;-68
2022/11/15 07:10:18;;;;;;;9.25;5.55;;;7.00;99.90;;;;;;6094212;23;20177;-69
2022/11/15 07:12:47;;;;;;;10.45;8.10;;;7.00;99.90;;;;;;6093490;23;20502;-69
2022/11/15 07:15:14;;;;;;;13.00;5.55;;;7.10;99.90;;;;;;6092887;23;20193;-69
2022/11/15 07:17:41;;;;;;;6.97;5.50;;;7.10;99.90;;;;;;6094316;23;20186;-70
2022/11/15 07:20:10;;;;;;;9.95;8.52;;;7.10;99.90;;;;;;6093500;23;20543;-69
2022/11/15 07:22:37;;;;;;;8.13;6.55;;;7.20;99.90;;;;;;6092881;23;20187;-69
2022/11/15 07:25:04;;;;;;;11.80;8.07;;;7.20;99.90;;;;;;6094095;23;20190;-70
2022/11/15 07:27:30;;;;;;;8.35;6.00;;;7.20;99.90;;;;;;6093688;23;20186;-69
2022/11/15 07:29:57;;;;;;;12.52;9.77;;;7.20;99.90;;;;;;6093649;23;20186;-70
2022/11/15 07:32:24;;;;;;;4.38;4.07;;;7.20;99.90;;;;;;6093287;23;20252;-70
2022/11/15 07:34:51;;;;;;;9.48;7.10;;;7.30;99.90;;;;;;6093143;23;20193;-70
2022/11/15 07:37:19;;;;;;;9.40;6.75;;;7.40;99.90;;;;;;6093879;23;20198;-70
2022/11/15 07:39:45;;;;;;;10.88;7.57;;;7.40;99.90;;;;;;6093315;23;20187;-70
2022/11/15 07:44:56;;;;;;;6.85;6.28;;;7.60;99.90;;;;;;6092886;23;20529;-69
2022/11/15 07:47:23;;;;;;;13.68;7.38;;;7.70;99.90;;;;;;6093147;23;20198;-69
2022/11/15 07:49:50;;;;;;;9.70;8.20;;;7.70;99.90;;;;;;6093393;23;20187;-69
2022/11/15 07:52:16;;;;;;;9.23;6.28;;;7.80;99.90;;;;;;6092110;23;20282;-69
2022/11/15 07:54:44;;;;;;;6.30;5.78;;;7.80;99.90;;;;;;6091914;23;20191;-69
2022/11/15 07:57:11;;;;;;;12.70;7.93;;;7.80;99.90;;;;;;6102042;23;20282;-69
2022/11/15 07:59:38;;;;;;;7.43;5.05;;;7.90;99.90;;;;;;6093407;23;20495;-70
2022/11/15 08:02:04;;;;;;;12.00;8.02;;;8.00;99.90;;;;;;6092814;23;20214;-69
2022/11/15 08:04:31;;;;;;;9.25;5.90;;;8.00;99.90;;;;;;6092568;23;20182;-69
2022/11/15 08:06:58;;;;;;;8.57;7.32;;;8.00;99.90;;;;;;6093385;23;20183;-69
2022/11/15 08:09:25;;;;;;;9.05;6.32;;;8.00;99.90;;;;;;6092455;23;20269;-69
2022/11/15 08:11:53;;;;;;;12.27;5.75;;;8.00;99.90;;;;;;6093127;23;20293;-69
2022/11/15 08:14:21;;;;;;;8.07;7.07;;;8.00;99.90;;;;;;6092516;23;20198;-69
2022/11/15 08:16:48;;;;;;;9.57;6.80;;;8.00;99.90;;;;;;6093478;23;20542;-69
2022/11/15 08:19:15;;;;;;;12.55;9.10;;;8.10;99.90;;;;;;6093280;23;20194;-69
2022/11/15 08:21:42;;;;;;;9.07;6.60;;;8.10;99.90;;;;;;6092826;23;20209;-69
2022/11/15 08:24:11;;;;;;;8.10;6.10;;;8.10;99.90;;;;;;6092836;23;20197;-69
2022/11/15 08:26:39;;;;;;;11.40;6.03;;;8.20;99.90;;;;;;6092684;23;20184;-69
2022/11/15 08:29:08;;;;;;;7.60;6.70;;;8.20;99.90;;;;;;6093754;23;20202;-70
2022/11/15 08:31:36;;;;;;;5.95;5.32;;;8.30;99.90;;;;;;6093485;23;20203;-70
2022/11/15 08:34:03;;;;;;;11.95;7.95;;;8.30;99.90;;;;;;6092800;23;20215;-70
2022/11/15 08:36:29;;;;;;;11.43;9.00;;;8.30;99.90;;;;;;6093431;23;20182;-70
2022/11/15 08:38:56;;;;;;;11.57;6.32;;;8.30;99.90;;;;;;6093160;23;20206;-70
2022/11/15 08:41:27;;;;;;;7.72;5.05;;;8.30;99.90;;;;;;6092473;23;20218;-70
2022/11/15 08:43:54;;;;;;;11.95;7.30;;;8.30;99.90;;;;;;6092581;23;20182;-69
2022/11/15 08:46:22;;;;;;;5.30;4.13;;;8.40;99.90;;;;;;6092950;23;20266;-70
2022/11/15 08:48:49;;;;;;;8.32;5.97;;;8.40;99.90;;;;;;6093888;23;20182;-70
2022/11/15 08:51:16;;;;;;;7.78;6.78;;;8.40;99.90;;;;;;6093099;23;20222;-70
2022/11/15 08:53:43;;;;;;;10.48;6.20;;;8.40;99.90;;;;;;6094258;23;20202;-70
2022/11/15 08:56:11;;;;;;;7.45;6.68;;;8.50;99.90;;;;;;6094036;23;20187;-69
2022/11/15 08:58:39;;;;;;;8.73;5.72;;;8.50;99.90;;;;;;6095672;23;20187;-70
2022/11/15 09:01:06;;;;;;;7.90;7.05;;;8.50;99.90;;;;;;6095112;23;20215;-70
2022/11/15 09:03:34;;;;;;;7.32;5.60;;;8.50;99.90;;;;;;6094926;23;20198;-70
2022/11/15 09:06:01;;;;;;;7.85;4.57;;;8.50;99.90;;;;;;6095373;23;20650;-70
2022/11/15 09:08:31;;;;;;;5.95;5.55;;;8.50;99.90;;;;;;6094466;23;20309;-72
2022/11/15 09:10:57;;;;;;;7.82;6.65;;;8.50;99.90;;;;;;6092380;23;20207;-71
2022/11/15 09:13:24;;;;;;;15.38;8.40;;;8.50;99.90;;;;;;6093777;23;20283;-71
2022/11/15 09:15:51;;;;;;;9.57;4.97;;;8.60;99.90;;;;;;6094846;23;20190;-70
2022/11/15 09:18:17;;;;;;;8.68;5.97;;;8.60;99.90;;;;;;6094878;23;20618;-71
2022/11/15 09:20:45;;;;;;;6.72;6.05;;;8.60;99.90;;;;;;6095745;23;20204;-71
2022/11/15 09:23:12;;;;;;;4.80;4.47;;;8.50;99.90;;;;;;6093518;23;20303;-70
2022/11/15 09:25:39;;;;;;;7.40;6.40;;;8.50;99.90;;;;;;6094765;23;20549;-70
2022/11/15 09:28:07;;;;;;;9.25;7.78;;;8.60;99.90;;;;;;6094963;23;20182;-71
2022/11/15 09:30:34;;;;;;;9.20;6.03;;;8.70;99.90;;;;;;6095444;23;20211;-70
2022/11/15 09:33:07;;;;;;;10.80;7.80;;;8.80;99.90;;;;;;6094738;23;20208;-71
2022/11/15 09:35:34;;;;;;;9.82;6.45;;;8.90;99.90;;;;;;6095369;23;20174;-71
2022/11/15 09:38:02;;;;;;;11.07;5.03;;;9.00;99.90;;;;;;6093714;23;20270;-71
2022/11/15 09:40:31;;;;;;;10.00;7.15;;;9.10;99.90;;;;;;6095181;23;20188;-71
2022/11/15 09:43:12;;;;;;;9.48;6.85;;;9.30;99.90;;;;;;6093771;23;20177;-71
2022/11/15 09:45:51;;;;;;;8.57;6.68;;;9.40;99.90;;;;;;6095019;23;20191;-71
2022/11/15 09:48:42;;;;;;;10.70;6.47;;;9.60;99.90;;;;;;6094308;23;20179;-70
2022/11/15 09:51:17;;;;;;;9.90;5.35;;;9.70;99.90;;;;;;6093612;23;20537;-71
2022/11/15 09:53:56;;;;;;;5.68;4.93;;;9.80;99.90;;;;;;6093588;23;20169;-70
2022/11/15 09:56:25;;;;;;;4.80;4.30;;;9.90;99.90;;;;;;6094246;23;20170;-71
2022/11/15 09:58:58;;;;;;;7.10;5.28;;;10.00;99.90;;;;;;6095227;23;20563;-69
2022/11/15 10:01:44;;;;;;;8.65;5.70;;;10.20;99.90;;;;;;6103926;23;20219;-71
2022/11/15 10:04:11;;;;;;;8.27;5.95;;;10.20;99.90;;;;;;6092915;23;20175;-71
2022/11/15 10:06:44;;;;;;;7.10;5.60;;;10.30;99.90;;;;;;6095172;23;20353;-72
2022/11/15 10:09:17;;;;;;;5.72;4.80;;;10.40;99.90;;;;;;6094711;23;20195;-72
2022/11/15 10:11:44;;;;;;;5.13;4.68;;;10.50;99.90;;;;;;6093463;23;20216;-72
2022/11/15 10:14:14;;;;;;;5.95;4.45;;;10.50;99.90;;;;;;6093872;23;20193;-72
2022/11/15 10:17:18;;;;;;;3.60;3.28;;;10.60;99.90;;;;;;6094547;23;20185;-72
2022/11/15 10:19:57;;;;;;;4.93;4.53;;;10.70;99.90;;;;;;6094656;23;20172;-72
2022/11/15 10:22:28;;;;;;;4.80;3.90;;;10.70;99.90;;;;;;6103898;23;20220;-73
2022/11/15 10:25:13;;;;;;;6.15;4.32;;;10.70;99.90;;;;;;6094431;23;20171;-71
2022/11/15 10:27:40;;;;;;;5.43;4.27;;;10.90;99.90;;;;;;6095300;23;20175;-71
2022/11/15 10:30:14;;;;;;;7.07;4.15;;;10.90;99.90;;;;;;6094522;23;20426;-71
2022/11/15 10:32:42;;;;;;;3.67;3.37;;;11.00;99.90;;;;;;6093259;23;20519;-71
2022/11/15 10:35:19;;;;;;;5.07;4.50;;;11.10;99.90;;;;;;6094603;23;20434;-69
2022/11/15 10:37:45;;;;;;;3.60;2.90;;;11.10;99.90;;;;;;6092647;23;20417;-71
2022/11/15 10:40:20;;;;;;;4.87;3.50;;;11.20;99.90;;;;;;6094178;23;20926;-71
2022/11/15 10:42:47;;;;;;;6.77;6.17;;;11.30;99.90;;;;;;6094200;23;20496;-71
2022/11/15 10:45:25;;;;;;;2.93;2.73;;;11.30;99.90;;;;;;6093175;23;20425;-70
2022/11/15 10:47:52;;;;;;;4.77;3.60;;;11.50;99.90;;;;;;6093852;23;20414;-70
2022/11/15 10:50:31;;;;;;;3.80;3.50;;;11.50;99.90;;;;;;6090523;23;20437;-70
2022/11/15 10:53:00;;;;;;;7.57;3.43;;;11.60;99.90;;;;;;6092194;23;20446;-70
2022/11/15 10:55:31;;;;;;;4.43;3.00;;;11.70;99.90;;;;;;6094409;23;20433;-71
2022/11/15 10:58:04;;;;;;;5.43;4.93;;;11.80;99.90;;;;;;6094269;23;20426;-69
2022/11/15 11:00:35;;;;;;;4.10;3.13;;;11.80;99.90;;;;;;6094687;23;20418;-72
2022/11/15 11:03:05;;;;;;;3.73;3.43;;;11.80;99.90;;;;;;6093291;23;20482;-71
2022/11/15 11:05:34;;;;;;;4.77;4.10;;;11.80;99.90;;;;;;6095099;23;20468;-72
2022/11/15 11:08:02;;;;;;;5.73;4.00;;;11.90;99.90;;;;;;6093607;23;20437;-71
2022/11/15 11:10:33;;;;;;;9.47;3.70;;;12.00;99.90;;;;;;6093570;23;20437;-72
2022/11/15 11:13:14;;;;;;;4.00;3.70;;;12.10;99.90;;;;;;6092364;23;20992;-70
2022/11/15 11:15:43;;;;;;;4.53;4.13;;;12.20;99.90;;;;;;6093775;23;20467;-71
2022/11/15 11:18:21;;;;;;;6.13;3.93;;;12.20;99.90;;;;;;6092991;23;20427;-71
2022/11/15 11:20:54;;;;;;;4.27;3.70;;;12.20;99.90;;;;;;6093950;23;20810;-70
2022/11/15 11:23:39;;;;;;;4.63;4.10;;;12.20;99.90;;;;;;6091789;23;20411;-70
2022/11/15 11:26:24;;;;;;;3.17;3.07;;;12.20;99.90;;;;;;6093107;23;20411;-71
2022/11/15 11:29:01;;;;;;;4.33;3.83;;;12.20;99.90;;;;;;6093102;23;20774;-71
2022/11/15 11:31:35;;;;;;;3.57;3.23;;;12.20;99.90;;;;;;6092960;23;20473;-71
2022/11/15 11:34:13;;;;;;;3.93;3.70;;;12.20;99.90;;;;;;6093851;23;20411;-71
2022/11/15 11:36:45;;;;;;;3.30;3.00;;;12.30;99.90;;;;;;6092108;23;20419;-71
2022/11/15 11:39:25;;;;;;;2.87;2.60;;;12.30;99.90;;;;;;6093266;23;20415;-71
2022/11/15 11:42:02;;;;;;;2.60;2.40;;;12.30;99.90;;;;;;6092822;23;20442;-71
2022/11/15 11:44:35;;;;;;;3.40;3.17;;;12.40;99.90;;;;;;6092631;23;20419;-70
2022/11/15 11:47:04;;;;;;;2.00;1.93;;;12.40;99.90;;;;;;6093102;23;20507;-71
2022/11/15 11:49:37;;;;;;;3.23;3.10;;;12.50;99.90;;;;;;6093066;23;20427;-70
2022/11/15 11:52:11;;;;;;;2.97;2.77;;;12.50;99.90;;;;;;6093553;23;20455;-71
2022/11/15 11:54:45;;;;;;;2.50;2.30;;;12.50;99.90;;;;;;6093497;23;20417;-71
2022/11/15 11:57:22;;;;;;;13.93;3.50;;;12.50;99.90;;;;;;6092642;23;20418;-71
2022/11/15 11:59:54;;;;;;;2.60;2.50;;;12.50;99.90;;;;;;6092999;23;20419;-69
2022/11/15 12:02:28;;;;;;;3.53;3.23;;;12.50;99.90;;;;;;6092717;23;20533;-72
2022/11/15 12:05:03;;;;;;;3.23;2.93;;;12.50;99.90;;;;;;6093033;23;20904;-70
2022/11/15 12:07:34;;;;;;;3.30;3.20;;;12.50;99.90;;;;;;6093897;23;20410;-71
2022/11/15 12:10:06;;;;;;;2.57;2.37;;;12.50;99.90;;;;;;6094113;23;20411;-70
2022/11/15 12:12:42;;;;;;;2.97;2.77;;;12.60;99.90;;;;;;6090899;23;20459;-70
2022/11/15 12:15:17;;;;;;;3.23;2.93;;;12.60;99.90;;;;;;6092024;23;20410;-72
2022/11/15 12:17:43;;;;;;;4.40;3.67;;;12.60;99.90;;;;;;6093740;23;20411;-70
2022/11/15 12:20:17;;;;;;;2.77;2.50;;;12.70;99.90;;;;;;6092557;23;20426;-70
2022/11/15 12:22:48;;;;;;;3.50;2.67;;;12.70;99.90;;;;;;6090642;23;20492;-71
2022/11/15 12:25:19;;;;;;;2.80;2.57;;;12.70;99.90;;;;;;6093118;23;20507;-71
2022/11/15 12:27:51;;;;;;;4.23;3.77;;;12.70;99.90;;;;;;6091273;23;20419;-71
2022/11/15 12:30:21;;;;;;;6.27;3.47;;;12.80;99.90;;;;;;6093433;23;20424;-68
2022/11/15 12:32:54;;;;;;;2.60;2.50;;;12.80;99.90;;;;;;6092360;23;20447;-70
2022/11/15 12:35:31;;;;;;;10.03;4.03;;;12.80;99.90;;;;;;6091641;23;20415;-71
2022/11/15 12:37:58;;;;;;;5.93;3.50;;;12.70;99.90;;;;;;6090724;23;20410;-71
2022/11/15 12:40:36;;;;;;;2.70;2.50;;;12.70;99.90;;;;;;6092454;23;20954;-71
2022/11/15 12:43:33;;;;;;;3.40;3.10;;;12.80;99.90;;;;;;6091645;23;20418;-71
2022/11/15 12:46:06;;;;;;;4.27;3.70;;;12.70;99.90;;;;;;6093364;23;20919;-71
2022/11/15 12:48:57;;;;;;;3.93;3.50;;;12.70;99.90;;;;;;6093138;23;20437;-70
2022/11/15 12:52:04;;;;;;;2.47;2.37;;;12.70;99.90;;;;;;6092162;23;20449;-70
2022/11/15 12:54:53;;;;;;;3.30;3.00;;;12.70;99.90;;;;;;6093141;23;20430;-71
2022/11/15 12:57:44;;;;;;;3.37;3.20;;;12.60;99.90;;;;;;6077122;23;20437;-71
2022/11/15 13:00:47;;;;;;;2.53;2.43;;;12.70;99.90;;;;;;6065278;23;20430;-71
2022/11/15 13:03:23;;;;;;;3.07;2.87;;;12.60;99.90;;;;;;6093075;23;20419;-71
2022/11/15 13:06:08;;;;;;;4.43;4.03;;;12.70;99.90;;;;;;6093304;23;20417;-71
2022/11/15 13:08:48;;;;;;;5.00;2.77;;;12.70;99.90;;;;;;6093972;23;20414;-71
2022/11/15 13:11:43;;;;;;;3.77;3.47;;;12.70;99.90;;;;;;6093730;23;20450;-68
2022/11/15 13:14:40;;;;;;;3.20;2.67;;;12.60;99.90;;;;;;6092950;23;20447;-69
2022/11/15 13:17:25;;;;;;;5.93;3.77;;;12.60;99.90;;;;;;6093438;23;20411;-70
2022/11/15 13:20:00;;;;;;;3.17;2.90;;;12.60;99.90;;;;;;6093670;23;20417;-69
2022/11/15 13:25:23;;;;;;;2.30;2.20;;;12.60;99.90;;;;;;6093789;23;20457;-69
2022/11/15 13:27:51;;;;;;;2.50;2.17;;;12.60;99.90;;;;;;6093114;23;20413;-69
2022/11/15 13:30:21;;;;;;;6.50;3.00;;;12.60;99.90;;;;;;6092518;23;20423;-69
2022/11/15 13:32:49;;;;;;;2.67;2.47;;;12.50;99.90;;;;;;6092549;23;20458;-69
2022/11/15 13:35:23;;;;;;;2.67;2.47;;;12.50;99.90;;;;;;6094022;23;20437;-69
2022/11/15 13:37:50;;;;;;;4.20;3.40;;;12.50;99.90;;;;;;6093069;23;20418;-70
2022/11/15 13:40:27;;;;;;;5.13;4.07;;;12.50;99.90;;;;;;6095436;23;20426;-69
2022/11/15 13:42:54;;;;;;;3.30;3.10;;;12.50;99.90;;;;;;6093873;23;20473;-70
2022/11/15 13:45:21;;;;;;;3.03;2.83;;;12.50;99.90;;;;;;6094426;23;20517;-69
2022/11/15 13:47:53;;;;;;;3.23;3.13;;;12.50;99.90;;;;;;6094076;23;20433;-69
2022/11/15 13:50:23;;;;;;;7.70;2.60;;;12.50;99.90;;;;;;6095468;23;20973;-69
2022/11/15 13:52:50;;;;;;;3.27;3.07;;;12.50;99.90;;;;;;6094230;23;20493;-70
2022/11/15 13:55:20;;;;;;;3.77;3.43;;;12.50;99.90;;;;;;6095528;23;20458;-69
2022/11/15 13:57:49;;;;;;;2.73;2.10;;;12.50;99.90;;;;;;6094889;23;20522;-69
2022/11/15 14:00:36;;;;;;;4.57;4.17;;;12.50;99.90;;;;;;6103836;23;20446;-68
2022/11/15 14:03:18;;;;;;;4.40;3.60;;;12.40;99.90;;;;;;6094773;23;20734;-70
2022/11/15 14:06:00;;;;;;;4.07;3.60;;;12.40;99.90;;;;;;6093480;23;20426;-71
2022/11/15 14:08:27;;;;;;;4.63;3.73;;;12.30;99.90;;;;;;6095342;23;20418;-70
2022/11/15 14:11:14;;;;;;;4.70;2.33;;;12.30;99.90;;;;;;6095034;23;20557;-70
2022/11/15 14:13:41;;;;;;;4.20;3.57;;;12.30;99.90;;;;;;6094861;23;20438;-70
2022/11/15 14:16:16;;;;;;;3.83;2.63;;;12.30;99.90;;;;;;6093278;23;20438;-70
2022/11/15 14:18:46;;;;;;;3.23;2.83;;;12.30;99.90;;;;;;6091548;23;20918;-70
2022/11/15 14:21:14;;;;;;;7.23;3.90;;;12.20;99.90;;;;;;6093975;23;20451;-70
2022/11/15 14:23:41;;;;;;;4.83;3.00;;;12.20;99.90;;;;;;6092824;23;20432;-70
2022/11/15 14:26:27;;;;;;;6.37;4.13;;;12.20;99.90;;;;;;6093636;23;20434;-69
2022/11/15 14:28:53;;;;;;;4.70;3.07;;;12.20;99.90;;;;;;6094490;23;20412;-68
2022/11/15 14:31:21;;;;;;;2.83;2.60;;;12.20;99.90;;;;;;6093057;23;20767;-68
2022/11/15 14:33:48;;;;;;;3.47;3.17;;;12.20;99.90;;;;;;6093969;23;20446;-69
2022/11/15 14:36:18;;;;;;;3.47;3.17;;;12.10;99.90;;;;;;6094146;23;20449;-70
2022/11/15 14:38:45;;;;;;;3.23;2.93;;;12.10;99.90;;;;;;6094890;23;20805;-68
2022/11/15 14:41:19;;;;;;;2.63;2.33;;;12.10;99.90;;;;;;6093748;23;20451;-68
2022/11/15 14:43:45;;;;;;;4.75;3.47;;;12.10;99.90;;;;;;6094653;23;20407;-69
2022/11/15 14:46:12;;;;;;;1.80;1.73;;;12.10;99.90;;;;;;6094498;23;20215;-69
2022/11/15 14:48:39;;;;;;;3.50;3.10;;;12.00;99.90;;;;;;6104046;23;20422;-70
2022/11/15 14:51:12;;;;;;;3.00;2.80;;;12.00;99.90;;;;;;6093455;23;20441;-69
2022/11/15 14:53:41;;;;;;;2.92;2.53;;;12.00;99.90;;;;;;6102069;23;20442;-70
2022/11/15 14:56:08;;;;;;;2.00;2.00;;;12.00;99.90;;;;;;6093979;23;20168;-69
2022/11/15 14:58:35;;;;;;;2.93;2.73;;;11.90;99.90;;;;;;6095384;23;20426;-69
2022/11/15 15:01:03;;;;;;;4.10;3.80;;;11.90;99.90;;;;;;6094304;23;20453;-70
2022/11/15 15:03:30;;;;;;;4.47;4.07;;;11.80;99.90;;;;;;6093462;23;20422;-69
2022/11/15 15:05:57;;;;;;;2.97;2.65;;;11.70;99.90;;;;;;6093019;23;20186;-69
2022/11/15 15:08:23;;;;;;;2.80;2.50;;;11.60;99.90;;;;;;6093993;23;20194;-69
2022/11/15 15:10:51;;;;;;;3.20;3.00;;;11.60;99.90;;;;;;6094778;23;20202;-70
2022/11/15 15:13:20;;;;;;;4.97;2.77;;;11.50;99.90;;;;;;6093246;23;20679;-69
2022/11/15 15:15:48;;;;;;;4.38;3.58;;;11.40;99.90;;;;;;6092655;23;20775;-70
2022/11/15 15:18:15;;;;;;;3.40;3.10;;;11.30;99.90;;;;;;6094491;23;20190;-71
2022/11/15 15:20:45;;;;;;;4.65;3.42;;;11.30;99.90;;;;;;6094062;23;20255;-69
2022/11/15 15:23:17;;;;;;;1.65;1.55;;;11.30;99.90;;;;;;6092262;23;20170;-70
2022/11/15 15:25:45;;;;;;;3.58;3.25;;;11.20;99.90;;;;;;6095649;23;20201;-70
2022/11/15 15:28:13;;;;;;;5.35;3.88;;;11.20;99.90;;;;;;6093179;23;20646;-69
2022/11/15 15:30:40;;;;;;;5.03;3.10;;;11.20;99.90;;;;;;6093927;23;20209;-69
2022/11/15 15:33:07;;;;;;;7.30;2.88;;;11.10;99.90;;;;;;6092793;23;20214;-69
2022/11/15 15:35:35;;;;;;;3.17;3.08;;;11.00;99.90;;;;;;6094409;23;20193;-69
2022/11/15 15:38:03;;;;;;;4.60;3.20;;;11.00;99.90;;;;;;6093891;23;20183;-69
2022/11/15 15:40:31;;;;;;;4.28;3.78;;;11.00;99.90;;;;;;6094354;23;20561;-71
2022/11/15 15:42:59;;;;;;;2.15;2.00;;;10.90;99.90;;;;;;6091740;23;20192;-69
2022/11/15 15:45:28;;;;;;;3.00;2.80;;;10.80;99.90;;;;;;6093829;23;20193;-69
2022/11/15 15:47:54;;;;;;;3.38;3.08;;;10.80;99.90;;;;;;6092557;23;20622;-69
2022/11/15 15:50:24;;;;;;;2.67;2.38;;;10.90;99.90;;;;;;6093803;23;20183;-69
2022/11/15 15:52:52;;;;;;;3.78;3.42;;;11.00;99.90;;;;;;6092238;23;20199;-70
2022/11/15 15:55:19;;;;;;;4.15;3.75;;;10.90;99.90;;;;;;6092923;23;20201;-70
2022/11/15 15:57:46;;;;;;;3.83;3.58;;;10.90;99.90;;;;;;6091345;23;20194;-70
2022/11/15 16:00:14;;;;;;;4.72;4.22;;;10.80;99.90;;;;;;6092687;23;20186;-69
2022/11/15 16:02:42;;;;;;;3.78;3.45;;;10.80;99.90;;;;;;6093038;23;20545;-70
2022/11/15 16:05:10;;;;;;;5.40;3.90;;;10.80;99.90;;;;;;6094087;23;20186;-69
2022/11/15 16:07:37;;;;;;;4.47;4.15;;;10.70;99.90;;;;;;6093299;23;20197;-69
2022/11/15 16:10:18;;;;;;;4.40;4.03;;;10.60;99.90;;;;;;6094640;23;20192;-69
2022/11/15 16:12:44;;;;;;;3.75;3.13;;;10.50;99.90;;;;;;6093995;23;20607;-69
2022/11/15 16:15:11;;;;;;;3.90;3.65;;;10.40;99.90;;;;;;6106231;23;20186;-70
2022/11/15 16:17:44;;;;;;;4.03;3.35;;;10.30;99.90;;;;;;6107597;23;20250;-69
2022/11/15 16:20:23;;;;;;;5.95;3.45;;;10.30;99.90;;;;;;6094364;23;20181;-70
2022/11/15 16:22:49;;;;;;;3.42;3.15;;;10.20;99.90;;;;;;6092352;23;20166;-70
2022/11/15 16:25:16;;;;;;;4.57;3.13;;;10.20;99.90;;;;;;6093191;23;20208;-70
2022/11/15 16:27:44;;;;;;;3.47;3.20;;;10.10;99.90;;;;;;6093400;23;20197;-69
2022/11/15 16:30:14;;;;;;;5.80;3.13;;;10.10;99.90;;;;;;6093075;23;20184;-70
2022/11/15 16:32:42;;;;;;;6.38;4.40;;;10.10;99.90;;;;;;6091850;23;20201;-69
2022/11/15 16:35:12;;;;;;;3.45;3.33;;;10.20;99.90;;;;;;6092852;23;20673;-69
2022/11/15 16:37:40;;;;;;;5.53;4.25;;;10.30;99.90;;;;;;6090536;23;20190;-70
2022/11/15 16:40:17;;;;;;;3.50;3.25;;;10.50;99.90;;;;;;6092237;23;20531;-69
2022/11/15 16:42:44;;;;;;;4.13;3.72;;;10.50;99.90;;;;;;6092201;23;20172;-69
2022/11/15 16:45:13;;;;;;;3.22;2.80;;;10.50;99.90;;;;;;6092392;23;20458;-69
2022/11/15 16:47:40;;;;;;;4.13;3.20;;;10.50;99.90;;;;;;6093269;23;20809;-69
2022/11/15 16:50:15;;;;;;;3.97;3.20;;;10.50;99.90;;;;;;6093141;23;20181;-69
2022/11/15 16:52:41;;;;;;;3.30;3.10;;;10.50;99.90;;;;;;6092350;23;20209;-69
2022/11/15 16:55:09;;;;;;;11.80;3.13;;;10.50;99.90;;;;;;6093036;23;20208;-69
2022/11/15 16:57:36;;;;;;;4.47;3.30;;;10.50;99.90;;;;;;6092011;23;20466;-69
2022/11/15 17:00:05;;;;;;;4.40;4.10;;;10.60;99.90;;;;;;6092426;23;20184;-69
2022/11/15 17:02:32;;;;;;;11.88;4.88;;;10.60;99.90;;;;;;6091420;23;20218;-69
2022/11/15 17:04:59;;;;;;;4.75;3.65;;;10.60;99.90;;;;;;6094437;23;20188;-69
2022/11/15 17:07:27;;;;;;;5.03;4.35;;;10.60;99.90;;;;;;6090991;23;20658;-69
2022/11/15 17:09:54;;;;;;;4.10;3.78;;;10.60;99.90;;;;;;6093226;23;20489;-69
2022/11/15 17:12:20;;;;;;;3.88;3.05;;;10.60;99.90;;;;;;6092584;23;20210;-69
2022/11/15 17:14:47;;;;;;;4.03;3.33;;;10.60;99.90;;;;;;6093967;23;20224;-69
2022/11/15 17:17:14;;;;;;;6.53;5.00;;;10.70;99.90;;;;;;6094831;23;20527;-69
2022/11/15 17:19:40;;;;;;;2.72;2.50;;;10.80;99.90;;;;;;6095101;23;20193;-69
2022/11/15 17:22:07;;;;;;;2.60;2.40;;;10.80;99.90;;;;;;6092523;23;20264;-69
2022/11/15 17:24:35;;;;;;;4.97;3.85;;;10.70;99.90;;;;;;6094148;23;20181;-69
2022/11/15 17:27:02;;;;;;;3.40;3.17;;;10.70;99.90;;;;;;6093353;23;20192;-69
2022/11/15 17:29:29;;;;;;;4.82;3.88;;;10.70;99.90;;;;;;6093842;23;20186;-69
2022/11/15 17:31:55;;;;;;;4.88;4.47;;;10.70;99.90;;;;;;6093893;23;20212;-68
2022/11/15 17:34:22;;;;;;;4.88;4.55;;;10.80;99.90;;;;;;6094074;23;20207;-67
2022/11/15 17:36:49;;;;;;;7.75;3.63;;;10.80;99.90;;;;;;6094119;23;20294;-69
2022/11/15 17:39:17;;;;;;;6.18;3.45;;;10.80;99.90;;;;;;6094020;23;20725;-69
2022/11/15 17:41:45;;;;;;;4.43;3.70;;;10.90;99.90;;;;;;6093338;23;20276;-69
2022/11/15 17:44:12;;;;;;;4.20;3.80;;;10.90;99.90;;;;;;6094333;23;20818;-69
2022/11/15 17:46:39;;;;;;;6.20;4.20;;;10.90;99.90;;;;;;6103337;23;20187;-69
2022/11/15 17:49:06;;;;;;;4.15;3.70;;;10.90;99.90;;;;;;6094488;23;20207;-69
2022/11/15 17:51:33;;;;;;;4.30;4.00;;;10.90;99.90;;;;;;6093989;23;20210;-69
2022/11/15 17:54:00;;;;;;;5.05;4.50;;;11.00;99.90;;;;;;6094002;23;20197;-69
2022/11/15 17:56:30;;;;;;;4.13;3.72;;;11.00;99.90;;;;;;6093040;23;20189;-68
2022/11/15 17:59:00;;;;;;;2.90;2.70;;;11.00;99.90;;;;;;6096231;23;20182;-69
2022/11/15 18:01:28;;;;;;;3.58;3.28;;;11.00;99.90;;;;;;6093552;23;20209;-69
2022/11/15 18:03:56;;;;;;;5.75;3.05;;;11.10;99.90;;;;;;6094416;23;20184;-68
2022/11/15 18:06:24;;;;;;;3.05;2.92;;;11.10;99.90;;;;;;6094967;23;20214;-68
2022/11/15 18:08:52;;;;;;;3.38;3.05;;;11.20;99.90;;;;;;6094757;23;20652;-68
2022/11/15 18:11:21;;;;;;;4.72;3.75;;;11.20;99.90;;;;;;6093635;23;20209;-68